sensor_id;sensor_type;location;lat;lon;timestamp;temperature;humidity
25440;DHT22;13365;52.208;5.488;2023-04-25T00:01:17;11.70;99.90
25440;DHT22;13365;52.208;5.488;2023-04-25T00:03:44;11.70;99.90
25440;DHT22;13365;52.208;5.488;2023-04-25T00:06:09;11.60;99.90
25440;DHT22;13365;52.208;5.488;2023-04-25T00:08:35;11.20;99.90
25440;DHT22;13365;52.208;5.488;2023-04-25T00:11:01;11.10;99.90
25440;DHT22;13365;52.208;5.488;2023-04-25T00:13:26;11.10;99.90
25440;DHT22;13365;52.208;5.488;2023-04-25T00:15:52;10.90;99.90
25440;DHT22;13365;52.208;5.488;2023-04-25T00:18:19;10.50;99.90
25440;DHT22;13365;52.208;5.488;2023-04-25T00:20:45;10.40;99.90
25440;DHT22;13365;52.208;5.488;2023-04-25T00:23:15;10.30;99.90
25440;DHT22;13365;52.208;5.488;2023-04-25T00:25:45;10.20;99.90
25440;DHT22;13365;52.208;5.488;2023-04-25T00:28:12;10.20;99.90
25440;DHT22;13365;52.208;5.488;2023-04-25T00:30:38;10.30;99.90
25440;DHT22;13365;52.208;5.488;2023-04-25T00:33:04;10.30;99.90
25440;DHT22;13365;52.208;5.488;2023-04-25T00:35:30;10.20;99.90
25440;DHT22;13365;52.208;5.488;2023-04-25T00:37:55;10.30;99.90
25440;DHT22;13365;52.208;5.488;2023-04-25T00:40:21;10.40;99.90
25440;DHT22;13365;52.208;5.488;2023-04-25T00:42:47;10.50;99.90
25440;DHT22;13365;52.208;5.488;2023-04-25T00:45:14;10.10;99.90
25440;DHT22;13365;52.208;5.488;2023-04-25T00:47:43;10.10;99.90
25440;DHT22;13365;52.208;5.488;2023-04-25T00:50:09;10.30;99.90
25440;DHT22;13365;52.208;5.488;2023-04-25T00:52:36;10.50;99.90
25440;DHT22;13365;52.208;5.488;2023-04-25T00:55:02;10.60;99.90
25440;DHT22;13365;52.208;5.488;2023-04-25T00:57:29;10.70;99.90
25440;DHT22;13365;52.208;5.488;2023-04-25T00:59:55;10.90;99.90
25440;DHT22;13365;52.208;5.488;2023-04-25T01:02:20;10.90;99.90
25440;DHT22;13365;52.208;5.488;2023-04-25T01:04:47;11.10;99.90
25440;DHT22;13365;52.208;5.488;2023-04-25T01:07:14;11.10;99.90
25440;DHT22;13365;52.208;5.488;2023-04-25T01:09:40;10.70;99.90
25440;DHT22;13365;52.208;5.488;2023-04-25T01:12:06;10.50;99.90
25440;DHT22;13365;52.208;5.488;2023-04-25T01:14:32;10.50;99.90
25440;DHT22;13365;52.208;5.488;2023-04-25T01:16:58;10.60;99.90
25440;DHT22;13365;52.208;5.488;2023-04-25T01:19:24;10.60;99.90
25440;DHT22;13365;52.208;5.488;2023-04-25T01:21:50;10.60;99.90
25440;DHT22;13365;52.208;5.488;2023-04-25T01:24:16;10.90;99.90
25440;DHT22;13365;52.208;5.488;2023-04-25T01:26:42;10.60;99.90
25440;DHT22;13365;52.208;5.488;2023-04-25T01:29:19;10.30;99.90
25440;DHT22;13365;52.208;5.488;2023-04-25T01:31:44;10.30;99.90
25440;DHT22;13365;52.208;5.488;2023-04-25T01:34:11;10.40;99.90
25440;DHT22;13365;52.208;5.488;2023-04-25T01:36:36;10.30;99.90
25440;DHT22;13365;52.208;5.488;2023-04-25T01:39:02;10.00;99.90
25440;DHT22;13365;52.208;5.488;2023-04-25T01:41:28;10.10;99.90
25440;DHT22;13365;52.208;5.488;2023-04-25T01:43:54;10.10;99.90
25440;DHT22;13365;52.208;5.488;2023-04-25T01:46:20;10.20;99.90
25440;DHT22;13365;52.208;5.488;2023-04-25T01:48:46;10.20;99.90
25440;DHT22;13365;52.208;5.488;2023-04-25T01:51:11;9.90;99.90
25440;DHT22;13365;52.208;5.488;2023-04-25T01:53:38;9.70;99.90
25440;DHT22;13365;52.208;5.488;2023-04-25T01:56:04;9.70;99.90
25440;DHT22;13365;52.208;5.488;2023-04-25T01:58:30;9.70;99.90
25440;DHT22;13365;52.208;5.488;2023-04-25T02:00:55;9.80;99.90
25440;DHT22;13365;52.208;5.488;2023-04-25T02:03:21;9.80;99.90
25440;DHT22;13365;52.208;5.488;2023-04-25T02:05:46;9.70;99.90
25440;DHT22;13365;52.208;5.488;2023-04-25T02:08:12;9.60;99.90
25440;DHT22;13365;52.208;5.488;2023-04-25T02:10:37;9.70;99.90
25440;DHT22;13365;52.208;5.488;2023-04-25T02:13:03;9.90;99.90
25440;DHT22;13365;52.208;5.488;2023-04-25T02:15:30;9.90;99.90
25440;DHT22;13365;52.208;5.488;2023-04-25T02:17:56;10.10;99.90
25440;DHT22;13365;52.208;5.488;2023-04-25T02:20:24;10.30;99.90
25440;DHT22;13365;52.208;5.488;2023-04-25T02:22:50;10.30;99.60
25440;DHT22;13365;52.208;5.488;2023-04-25T02:25:17;10.20;99.60
25440;DHT22;13365;52.208;5.488;2023-04-25T02:27:45;10.10;99.80
25440;DHT22;13365;52.208;5.488;2023-04-25T02:30:11;10.00;99.90
25440;DHT22;13365;52.208;5.488;2023-04-25T02:32:37;9.90;99.90
25440;DHT22;13365;52.208;5.488;2023-04-25T02:35:03;10.10;99.90
25440;DHT22;13365;52.208;5.488;2023-04-25T02:37:30;10.50;99.90
25440;DHT22;13365;52.208;5.488;2023-04-25T02:39:55;10.40;99.20
25440;DHT22;13365;52.208;5.488;2023-04-25T02:42:21;10.00;99.10
25440;DHT22;13365;52.208;5.488;2023-04-25T02:44:46;10.00;99.50
25440;DHT22;13365;52.208;5.488;2023-04-25T02:47:12;9.80;99.80
25440;DHT22;13365;52.208;5.488;2023-04-25T02:49:37;9.80;99.90
25440;DHT22;13365;52.208;5.488;2023-04-25T02:52:03;9.60;99.90
25440;DHT22;13365;52.208;5.488;2023-04-25T02:54:29;9.60;99.90
25440;DHT22;13365;52.208;5.488;2023-04-25T02:56:55;9.30;99.90
25440;DHT22;13365;52.208;5.488;2023-04-25T02:59:21;9.30;99.90
25440;DHT22;13365;52.208;5.488;2023-04-25T03:01:46;9.30;99.90
25440;DHT22;13365;52.208;5.488;2023-04-25T03:04:12;9.50;99.90
25440;DHT22;13365;52.208;5.488;2023-04-25T03:06:37;9.50;99.90
25440;DHT22;13365;52.208;5.488;2023-04-25T03:09:03;9.50;99.90
25440;DHT22;13365;52.208;5.488;2023-04-25T03:11:29;9.60;99.90
25440;DHT22;13365;52.208;5.488;2023-04-25T03:13:54;9.90;99.90
25440;DHT22;13365;52.208;5.488;2023-04-25T03:16:20;9.70;99.80
25440;DHT22;13365;52.208;5.488;2023-04-25T03:18:46;9.40;99.90
25440;DHT22;13365;52.208;5.488;2023-04-25T03:21:12;9.40;99.90
25440;DHT22;13365;52.208;5.488;2023-04-25T03:23:37;9.50;99.90
25440;DHT22;13365;52.208;5.488;2023-04-25T03:26:03;9.40;99.90
25440;DHT22;13365;52.208;5.488;2023-04-25T03:28:28;9.30;99.90
25440;DHT22;13365;52.208;5.488;2023-04-25T03:30:54;9.20;99.90
25440;DHT22;13365;52.208;5.488;2023-04-25T03:33:19;9.00;99.90
25440;DHT22;13365;52.208;5.488;2023-04-25T03:35:45;9.10;99.90
25440;DHT22;13365;52.208;5.488;2023-04-25T03:38:11;8.70;99.90
25440;DHT22;13365;52.208;5.488;2023-04-25T03:40:36;8.50;99.90
25440;DHT22;13365;52.208;5.488;2023-04-25T03:43:02;8.70;99.90
25440;DHT22;13365;52.208;5.488;2023-04-25T03:45:27;8.70;99.90
25440;DHT22;13365;52.208;5.488;2023-04-25T03:47:53;8.70;99.90
25440;DHT22;13365;52.208;5.488;2023-04-25T03:50:18;8.70;99.90
25440;DHT22;13365;52.208;5.488;2023-04-25T03:52:44;8.60;99.90
25440;DHT22;13365;52.208;5.488;2023-04-25T03:55:10;8.60;99.90
25440;DHT22;13365;52.208;5.488;2023-04-25T03:57:35;8.60;99.90
25440;DHT22;13365;52.208;5.488;2023-04-25T04:00:01;8.80;99.90
25440;DHT22;13365;52.208;5.488;2023-04-25T04:02:27;9.00;99.90
25440;DHT22;13365;52.208;5.488;2023-04-25T04:04:52;9.10;99.90
25440;DHT22;13365;52.208;5.488;2023-04-25T04:07:18;9.10;99.90
25440;DHT22;13365;52.208;5.488;2023-04-25T04:09:43;9.40;99.90
25440;DHT22;13365;52.208;5.488;2023-04-25T04:12:09;9.20;99.90
25440;DHT22;13365;52.208;5.488;2023-04-25T04:14:35;8.90;99.90
25440;DHT22;13365;52.208;5.488;2023-04-25T04:17:00;9.10;99.90
25440;DHT22;13365;52.208;5.488;2023-04-25T04:19:26;9.40;99.90
25440;DHT22;13365;52.208;5.488;2023-04-25T04:21:51;9.50;99.90
25440;DHT22;13365;52.208;5.488;2023-04-25T04:24:17;9.40;99.90
25440;DHT22;13365;52.208;5.488;2023-04-25T04:26:42;9.30;99.90
25440;DHT22;13365;52.208;5.488;2023-04-25T04:29:10;9.40;99.90
25440;DHT22;13365;52.208;5.488;2023-04-25T04:31:36;9.40;99.90
25440;DHT22;13365;52.208;5.488;2023-04-25T04:34:02;9.80;99.90
25440;DHT22;13365;52.208;5.488;2023-04-25T04:36:29;9.70;99.90
25440;DHT22;13365;52.208;5.488;2023-04-25T04:38:54;9.70;99.90
25440;DHT22;13365;52.208;5.488;2023-04-25T04:41:21;9.70;99.90
25440;DHT22;13365;52.208;5.488;2023-04-25T04:43:47;9.70;99.90
25440;DHT22;13365;52.208;5.488;2023-04-25T04:46:13;9.70;99.90
25440;DHT22;13365;52.208;5.488;2023-04-25T04:48:38;9.80;99.90
25440;DHT22;13365;52.208;5.488;2023-04-25T04:51:06;9.80;99.90
25440;DHT22;13365;52.208;5.488;2023-04-25T04:53:32;10.00;99.90
25440;DHT22;13365;52.208;5.488;2023-04-25T04:55:58;10.00;99.90
25440;DHT22;13365;52.208;5.488;2023-04-25T04:58:23;9.90;99.90
25440;DHT22;13365;52.208;5.488;2023-04-25T05:00:49;10.20;99.90
25440;DHT22;13365;52.208;5.488;2023-04-25T05:03:14;10.50;99.90
25440;DHT22;13365;52.208;5.488;2023-04-25T05:05:41;10.20;99.90
25440;DHT22;13365;52.208;5.488;2023-04-25T05:08:06;10.20;99.60
25440;DHT22;13365;52.208;5.488;2023-04-25T05:10:32;10.30;99.80
25440;DHT22;13365;52.208;5.488;2023-04-25T05:12:58;10.40;99.60
25440;DHT22;13365;52.208;5.488;2023-04-25T05:15:23;10.40;99.50
25440;DHT22;13365;52.208;5.488;2023-04-25T05:17:49;10.50;99.70
25440;DHT22;13365;52.208;5.488;2023-04-25T05:20:14;10.50;99.40
25440;DHT22;13365;52.208;5.488;2023-04-25T05:22:40;10.40;99.70
25440;DHT22;13365;52.208;5.488;2023-04-25T05:25:08;10.40;99.90
25440;DHT22;13365;52.208;5.488;2023-04-25T05:27:33;10.50;99.90
25440;DHT22;13365;52.208;5.488;2023-04-25T05:29:59;10.60;99.90
25440;DHT22;13365;52.208;5.488;2023-04-25T05:32:24;10.70;99.90
25440;DHT22;13365;52.208;5.488;2023-04-25T05:34:50;10.50;99.90
25440;DHT22;13365;52.208;5.488;2023-04-25T05:37:16;10.60;99.90
25440;DHT22;13365;52.208;5.488;2023-04-25T05:39:42;10.80;99.90
25440;DHT22;13365;52.208;5.488;2023-04-25T05:42:08;10.60;99.80
25440;DHT22;13365;52.208;5.488;2023-04-25T05:44:33;10.60;99.90
25440;DHT22;13365;52.208;5.488;2023-04-25T05:46:59;10.80;99.90
25440;DHT22;13365;52.208;5.488;2023-04-25T05:49:24;11.00;99.90
25440;DHT22;13365;52.208;5.488;2023-04-25T05:51:50;11.00;99.90
25440;DHT22;13365;52.208;5.488;2023-04-25T05:54:15;11.10;99.90
25440;DHT22;13365;52.208;5.488;2023-04-25T05:56:41;11.00;99.90
25440;DHT22;13365;52.208;5.488;2023-04-25T05:59:06;10.90;99.90
25440;DHT22;13365;52.208;5.488;2023-04-25T06:01:32;10.80;99.90
25440;DHT22;13365;52.208;5.488;2023-04-25T06:03:58;10.60;99.90
25440;DHT22;13365;52.208;5.488;2023-04-25T06:06:23;10.60;99.90
25440;DHT22;13365;52.208;5.488;2023-04-25T06:08:49;10.70;99.90
25440;DHT22;13365;52.208;5.488;2023-04-25T06:11:14;10.60;99.90
25440;DHT22;13365;52.208;5.488;2023-04-25T06:13:40;10.80;99.90
25440;DHT22;13365;52.208;5.488;2023-04-25T06:16:05;10.80;99.90
25440;DHT22;13365;52.208;5.488;2023-04-25T06:18:31;10.90;99.90
25440;DHT22;13365;52.208;5.488;2023-04-25T06:20:56;11.30;99.90
25440;DHT22;13365;52.208;5.488;2023-04-25T06:23:22;11.40;99.90
25440;DHT22;13365;52.208;5.488;2023-04-25T06:25:48;11.70;99.90
25440;DHT22;13365;52.208;5.488;2023-04-25T06:28:13;11.70;98.40
25440;DHT22;13365;52.208;5.488;2023-04-25T06:30:39;11.70;98.90
25440;DHT22;13365;52.208;5.488;2023-04-25T06:33:04;11.90;99.10
25440;DHT22;13365;52.208;5.488;2023-04-25T06:35:30;12.10;98.00
25440;DHT22;13365;52.208;5.488;2023-04-25T06:37:55;12.20;96.40
25440;DHT22;13365;52.208;5.488;2023-04-25T06:40:21;11.90;97.10
25440;DHT22;13365;52.208;5.488;2023-04-25T06:42:46;11.70;98.60
25440;DHT22;13365;52.208;5.488;2023-04-25T06:45:12;11.20;98.30
25440;DHT22;13365;52.208;5.488;2023-04-25T06:47:37;11.00;99.10
25440;DHT22;13365;52.208;5.488;2023-04-25T06:50:03;11.30;99.20
25440;DHT22;13365;52.208;5.488;2023-04-25T06:52:29;11.40;98.00
25440;DHT22;13365;52.208;5.488;2023-04-25T06:54:55;11.50;98.70
25440;DHT22;13365;52.208;5.488;2023-04-25T06:57:20;11.60;97.90
25440;DHT22;13365;52.208;5.488;2023-04-25T06:59:46;11.50;97.90
25440;DHT22;13365;52.208;5.488;2023-04-25T07:02:11;11.20;98.20
25440;DHT22;13365;52.208;5.488;2023-04-25T07:04:37;11.20;98.20
25440;DHT22;13365;52.208;5.488;2023-04-25T07:07:02;11.70;98.60
25440;DHT22;13365;52.208;5.488;2023-04-25T07:09:29;11.70;98.20
25440;DHT22;13365;52.208;5.488;2023-04-25T07:11:55;11.80;97.70
25440;DHT22;13365;52.208;5.488;2023-04-25T07:14:21;11.50;97.70
25440;DHT22;13365;52.208;5.488;2023-04-25T07:16:47;11.90;99.30
25440;DHT22;13365;52.208;5.488;2023-04-25T07:19:13;12.40;98.70
25440;DHT22;13365;52.208;5.488;2023-04-25T07:21:38;12.50;95.00
25440;DHT22;13365;52.208;5.488;2023-04-25T07:24:04;12.90;94.70
25440;DHT22;13365;52.208;5.488;2023-04-25T07:26:30;13.00;94.20
25440;DHT22;13365;52.208;5.488;2023-04-25T07:28:55;12.50;93.60
25440;DHT22;13365;52.208;5.488;2023-04-25T07:31:21;12.30;93.60
25440;DHT22;13365;52.208;5.488;2023-04-25T07:33:48;12.20;93.60
25440;DHT22;13365;52.208;5.488;2023-04-25T07:36:13;12.10;94.10
25440;DHT22;13365;52.208;5.488;2023-04-25T07:38:40;11.90;95.00
25440;DHT22;13365;52.208;5.488;2023-04-25T07:41:06;12.20;95.60
25440;DHT22;13365;52.208;5.488;2023-04-25T07:43:31;12.40;95.40
25440;DHT22;13365;52.208;5.488;2023-04-25T07:45:57;12.70;94.20
25440;DHT22;13365;52.208;5.488;2023-04-25T07:48:22;12.50;92.70
25440;DHT22;13365;52.208;5.488;2023-04-25T07:50:48;12.40;92.10
25440;DHT22;13365;52.208;5.488;2023-04-25T07:53:14;12.50;92.30
25440;DHT22;13365;52.208;5.488;2023-04-25T07:55:39;12.70;92.30
25440;DHT22;13365;52.208;5.488;2023-04-25T07:58:09;12.70;91.40
25440;DHT22;13365;52.208;5.488;2023-04-25T08:00:35;12.30;93.00
25440;DHT22;13365;52.208;5.488;2023-04-25T08:03:01;11.90;92.80
25440;DHT22;13365;52.208;5.488;2023-04-25T08:05:26;11.80;93.80
25440;DHT22;13365;52.208;5.488;2023-04-25T08:07:52;11.90;94.10
25440;DHT22;13365;52.208;5.488;2023-04-25T08:10:17;11.80;93.80
25440;DHT22;13365;52.208;5.488;2023-04-25T08:12:43;11.80;93.60
25440;DHT22;13365;52.208;5.488;2023-04-25T08:15:09;11.50;93.50
25440;DHT22;13365;52.208;5.488;2023-04-25T08:17:34;11.60;94.50
25440;DHT22;13365;52.208;5.488;2023-04-25T08:20:00;11.70;93.70
25440;DHT22;13365;52.208;5.488;2023-04-25T08:22:26;11.40;94.30
25440;DHT22;13365;52.208;5.488;2023-04-25T08:24:51;11.50;94.60
25440;DHT22;13365;52.208;5.488;2023-04-25T08:27:18;11.60;94.50
25440;DHT22;13365;52.208;5.488;2023-04-25T08:29:44;11.80;94.30
25440;DHT22;13365;52.208;5.488;2023-04-25T08:32:09;12.00;93.80
25440;DHT22;13365;52.208;5.488;2023-04-25T08:34:35;12.20;92.20
25440;DHT22;13365;52.208;5.488;2023-04-25T08:37:02;12.00;91.50
25440;DHT22;13365;52.208;5.488;2023-04-25T08:39:29;12.20;91.40
25440;DHT22;13365;52.208;5.488;2023-04-25T08:41:55;12.20;91.70
25440;DHT22;13365;52.208;5.488;2023-04-25T08:44:22;12.60;92.70
25440;DHT22;13365;52.208;5.488;2023-04-25T08:46:48;12.70;90.60
25440;DHT22;13365;52.208;5.488;2023-04-25T08:49:16;13.00;89.00
25440;DHT22;13365;52.208;5.488;2023-04-25T08:51:46;12.50;87.70
25440;DHT22;13365;52.208;5.488;2023-04-25T08:54:13;12.50;90.00
25440;DHT22;13365;52.208;5.488;2023-04-25T08:56:41;12.60;90.90
25440;DHT22;13365;52.208;5.488;2023-04-25T08:59:09;12.60;91.00
25440;DHT22;13365;52.208;5.488;2023-04-25T09:01:35;12.80;88.20
25440;DHT22;13365;52.208;5.488;2023-04-25T09:04:01;13.00;89.60
25440;DHT22;13365;52.208;5.488;2023-04-25T09:06:30;13.10;88.20
25440;DHT22;13365;52.208;5.488;2023-04-25T09:09:02;13.30;87.40
25440;DHT22;13365;52.208;5.488;2023-04-25T09:11:29;13.20;86.50
25440;DHT22;13365;52.208;5.488;2023-04-25T09:14:14;13.10;83.10
25440;DHT22;13365;52.208;5.488;2023-04-25T09:21:54;13.20;82.70
25440;DHT22;13365;52.208;5.488;2023-04-25T09:24:49;13.40;84.10
25440;DHT22;13365;52.208;5.488;2023-04-25T09:27:21;13.60;81.40
25440;DHT22;13365;52.208;5.488;2023-04-25T09:29:57;13.70;79.60
25440;DHT22;13365;52.208;5.488;2023-04-25T09:32:24;13.80;77.80
25440;DHT22;13365;52.208;5.488;2023-04-25T09:34:52;13.70;78.00
25440;DHT22;13365;52.208;5.488;2023-04-25T09:39:45;13.50;82.20
25440;DHT22;13365;52.208;5.488;2023-04-25T09:42:14;13.00;85.00
25440;DHT22;13365;52.208;5.488;2023-04-25T09:44:44;12.60;86.90
25440;DHT22;13365;52.208;5.488;2023-04-25T09:47:12;11.90;89.10
25440;DHT22;13365;52.208;5.488;2023-04-25T09:49:40;11.40;90.10
25440;DHT22;13365;52.208;5.488;2023-04-25T09:52:07;11.50;91.20
25440;DHT22;13365;52.208;5.488;2023-04-25T09:54:33;11.70;90.20
25440;DHT22;13365;52.208;5.488;2023-04-25T09:57:06;11.50;88.80
25440;DHT22;13365;52.208;5.488;2023-04-25T09:59:36;11.50;88.90
25440;DHT22;13365;52.208;5.488;2023-04-25T10:02:07;11.70;89.00
25440;DHT22;13365;52.208;5.488;2023-04-25T10:04:34;11.70;89.40
25440;DHT22;13365;52.208;5.488;2023-04-25T10:07:05;12.20;90.00
25440;DHT22;13365;52.208;5.488;2023-04-25T10:09:32;12.40;88.90
25440;DHT22;13365;52.208;5.488;2023-04-25T10:12:00;12.40;88.70
25440;DHT22;13365;52.208;5.488;2023-04-25T10:14:26;13.00;88.60
25440;DHT22;13365;52.208;5.488;2023-04-25T10:16:54;13.30;88.80
25440;DHT22;13365;52.208;5.488;2023-04-25T10:19:21;13.20;85.70
25440;DHT22;13365;52.208;5.488;2023-04-25T10:21:51;13.30;85.10
25440;DHT22;13365;52.208;5.488;2023-04-25T10:24:17;13.30;85.10
25440;DHT22;13365;52.208;5.488;2023-04-25T10:26:44;13.80;85.60
25440;DHT22;13365;52.208;5.488;2023-04-25T10:29:10;14.10;83.10
25440;DHT22;13365;52.208;5.488;2023-04-25T10:31:45;14.20;82.10
25440;DHT22;13365;52.208;5.488;2023-04-25T10:34:11;14.20;81.40
25440;DHT22;13365;52.208;5.488;2023-04-25T10:36:36;14.50;78.40
25440;DHT22;13365;52.208;5.488;2023-04-25T10:39:04;14.30;80.80
25440;DHT22;13365;52.208;5.488;2023-04-25T10:41:45;14.60;78.10
25440;DHT22;13365;52.208;5.488;2023-04-25T10:44:11;14.70;77.70
25440;DHT22;13365;52.208;5.488;2023-04-25T10:46:37;15.00;81.40
25440;DHT22;13365;52.208;5.488;2023-04-25T10:49:03;14.50;79.60
25440;DHT22;13365;52.208;5.488;2023-04-25T10:51:31;14.60;82.30
25440;DHT22;13365;52.208;5.488;2023-04-25T10:54:06;14.70;79.80
25440;DHT22;13365;52.208;5.488;2023-04-25T10:59:06;14.70;79.70
25440;DHT22;13365;52.208;5.488;2023-04-25T11:01:52;14.60;77.00
25440;DHT22;13365;52.208;5.488;2023-04-25T11:04:29;14.80;79.00
25440;DHT22;13365;52.208;5.488;2023-04-25T11:09:23;14.80;76.00
25440;DHT22;13365;52.208;5.488;2023-04-25T11:11:56;14.60;76.90
25440;DHT22;13365;52.208;5.488;2023-04-25T11:14:22;13.60;81.10
25440;DHT22;13365;52.208;5.488;2023-04-25T11:16:53;13.20;86.30
25440;DHT22;13365;52.208;5.488;2023-04-25T11:19:20;13.00;84.20
25440;DHT22;13365;52.208;5.488;2023-04-25T11:21:45;12.80;84.70
25440;DHT22;13365;52.208;5.488;2023-04-25T11:24:11;12.60;87.50
25440;DHT22;13365;52.208;5.488;2023-04-25T11:26:37;12.10;91.20
25440;DHT22;13365;52.208;5.488;2023-04-25T11:29:03;12.10;93.40
25440;DHT22;13365;52.208;5.488;2023-04-25T11:31:29;12.40;92.90
25440;DHT22;13365;52.208;5.488;2023-04-25T11:33:58;12.50;92.20
25440;DHT22;13365;52.208;5.488;2023-04-25T11:36:25;12.50;91.70
25440;DHT22;13365;52.208;5.488;2023-04-25T11:38:52;12.60;91.60
25440;DHT22;13365;52.208;5.488;2023-04-25T11:41:19;12.70;88.80
25440;DHT22;13365;52.208;5.488;2023-04-25T11:43:44;12.70;88.10
25440;DHT22;13365;52.208;5.488;2023-04-25T11:46:10;12.80;89.30
25440;DHT22;13365;52.208;5.488;2023-04-25T11:48:38;12.80;88.30
25440;DHT22;13365;52.208;5.488;2023-04-25T11:51:04;12.80;87.80
25440;DHT22;13365;52.208;5.488;2023-04-25T11:53:29;12.80;86.70
25440;DHT22;13365;52.208;5.488;2023-04-25T11:55:55;13.00;88.20
25440;DHT22;13365;52.208;5.488;2023-04-25T11:58:21;13.30;86.90
25440;DHT22;13365;52.208;5.488;2023-04-25T12:00:47;13.30;83.60
25440;DHT22;13365;52.208;5.488;2023-04-25T12:03:12;13.50;84.60
25440;DHT22;13365;52.208;5.488;2023-04-25T12:05:38;13.30;84.00
25440;DHT22;13365;52.208;5.488;2023-04-25T12:08:14;13.60;84.50
25440;DHT22;13365;52.208;5.488;2023-04-25T12:10:42;13.90;84.40
25440;DHT22;13365;52.208;5.488;2023-04-25T12:13:25;14.20;81.90
25440;DHT22;13365;52.208;5.488;2023-04-25T12:15:53;13.70;77.90
25440;DHT22;13365;52.208;5.488;2023-04-25T12:18:25;13.40;76.50
25440;DHT22;13365;52.208;5.488;2023-04-25T12:20:54;13.00;75.40
25440;DHT22;13365;52.208;5.488;2023-04-25T12:23:29;13.20;78.20
25440;DHT22;13365;52.208;5.488;2023-04-25T12:25:56;13.60;79.60
25440;DHT22;13365;52.208;5.488;2023-04-25T12:28:23;13.90;78.70
25440;DHT22;13365;52.208;5.488;2023-04-25T12:31:05;13.90;78.80
25440;DHT22;13365;52.208;5.488;2023-04-25T12:33:33;13.50;79.00
25440;DHT22;13365;52.208;5.488;2023-04-25T12:35:59;13.50;80.90
25440;DHT22;13365;52.208;5.488;2023-04-25T12:38:30;13.60;79.00
25440;DHT22;13365;52.208;5.488;2023-04-25T12:40:57;14.00;76.30
25440;DHT22;13365;52.208;5.488;2023-04-25T12:43:23;14.00;74.80
25440;DHT22;13365;52.208;5.488;2023-04-25T12:45:50;14.30;75.60
25440;DHT22;13365;52.208;5.488;2023-04-25T12:48:16;14.40;74.30
25440;DHT22;13365;52.208;5.488;2023-04-25T12:50:42;14.50;74.20
25440;DHT22;13365;52.208;5.488;2023-04-25T12:53:07;14.90;71.80
25440;DHT22;13365;52.208;5.488;2023-04-25T12:55:34;15.10;64.40
25440;DHT22;13365;52.208;5.488;2023-04-25T12:58:00;15.30;67.30
25440;DHT22;13365;52.208;5.488;2023-04-25T13:00:26;15.50;66.00
25440;DHT22;13365;52.208;5.488;2023-04-25T13:02:52;15.80;68.50
25440;DHT22;13365;52.208;5.488;2023-04-25T13:05:17;15.60;69.10
25440;DHT22;13365;52.208;5.488;2023-04-25T13:07:43;15.50;69.30
25440;DHT22;13365;52.208;5.488;2023-04-25T13:10:08;15.30;70.10
25440;DHT22;13365;52.208;5.488;2023-04-25T13:12:34;15.50;66.90
25440;DHT22;13365;52.208;5.488;2023-04-25T13:15:00;15.30;69.70
25440;DHT22;13365;52.208;5.488;2023-04-25T13:17:25;15.00;74.10
25440;DHT22;13365;52.208;5.488;2023-04-25T13:19:51;14.60;77.70
25440;DHT22;13365;52.208;5.488;2023-04-25T13:22:16;13.80;78.50
25440;DHT22;13365;52.208;5.488;2023-04-25T13:24:46;13.00;81.80
25440;DHT22;13365;52.208;5.488;2023-04-25T13:27:12;13.10;83.20
25440;DHT22;13365;52.208;5.488;2023-04-25T13:29:38;12.90;80.60
25440;DHT22;13365;52.208;5.488;2023-04-25T13:32:08;13.00;80.50
25440;DHT22;13365;52.208;5.488;2023-04-25T13:34:33;13.20;80.50
25440;DHT22;13365;52.208;5.488;2023-04-25T13:36:59;13.30;80.60
25440;DHT22;13365;52.208;5.488;2023-04-25T13:39:25;13.40;78.40
25440;DHT22;13365;52.208;5.488;2023-04-25T13:41:51;13.30;77.90
25440;DHT22;13365;52.208;5.488;2023-04-25T13:44:16;13.40;80.80
25440;DHT22;13365;52.208;5.488;2023-04-25T13:46:42;13.70;80.50
25440;DHT22;13365;52.208;5.488;2023-04-25T13:49:08;13.80;78.10
25440;DHT22;13365;52.208;5.488;2023-04-25T13:51:34;13.50;77.40
25440;DHT22;13365;52.208;5.488;2023-04-25T13:54:00;13.20;76.40
25440;DHT22;13365;52.208;5.488;2023-04-25T13:56:26;13.10;77.30
25440;DHT22;13365;52.208;5.488;2023-04-25T13:58:51;13.00;79.10
25440;DHT22;13365;52.208;5.488;2023-04-25T14:01:17;13.00;79.80
25440;DHT22;13365;52.208;5.488;2023-04-25T14:03:44;12.80;80.30
25440;DHT22;13365;52.208;5.488;2023-04-25T14:06:10;12.90;82.20
25440;DHT22;13365;52.208;5.488;2023-04-25T14:08:38;13.00;80.70
25440;DHT22;13365;52.208;5.488;2023-04-25T14:11:03;13.00;77.60
25440;DHT22;13365;52.208;5.488;2023-04-25T14:13:29;13.00;79.40
25440;DHT22;13365;52.208;5.488;2023-04-25T14:15:55;13.40;80.60
25440;DHT22;13365;52.208;5.488;2023-04-25T14:18:20;13.90;81.20
25440;DHT22;13365;52.208;5.488;2023-04-25T14:20:46;14.40;76.90
25440;DHT22;13365;52.208;5.488;2023-04-25T14:23:12;15.00;73.70
25440;DHT22;13365;52.208;5.488;2023-04-25T14:25:37;15.30;71.60
25440;DHT22;13365;52.208;5.488;2023-04-25T14:28:03;15.90;73.70
25440;DHT22;13365;52.208;5.488;2023-04-25T14:30:29;16.30;70.80
25440;DHT22;13365;52.208;5.488;2023-04-25T14:32:54;16.30;74.00
25440;DHT22;13365;52.208;5.488;2023-04-25T14:35:20;16.20;74.20
25440;DHT22;13365;52.208;5.488;2023-04-25T14:37:46;15.80;73.80
25440;DHT22;13365;52.208;5.488;2023-04-25T14:40:13;15.70;73.60
25440;DHT22;13365;52.208;5.488;2023-04-25T14:42:40;15.70;74.00
25440;DHT22;13365;52.208;5.488;2023-04-25T14:45:07;15.90;73.00
25440;DHT22;13365;52.208;5.488;2023-04-25T14:47:34;15.80;71.20
25440;DHT22;13365;52.208;5.488;2023-04-25T14:50:00;15.40;71.80
25440;DHT22;13365;52.208;5.488;2023-04-25T14:52:26;15.60;72.20
25440;DHT22;13365;52.208;5.488;2023-04-25T14:54:52;15.30;71.50
25440;DHT22;13365;52.208;5.488;2023-04-25T14:57:18;15.00;71.10
25440;DHT22;13365;52.208;5.488;2023-04-25T14:59:43;14.60;70.30
25440;DHT22;13365;52.208;5.488;2023-04-25T15:02:10;14.40;71.80
25440;DHT22;13365;52.208;5.488;2023-04-25T15:04:36;14.60;73.00
25440;DHT22;13365;52.208;5.488;2023-04-25T15:07:02;14.50;71.10
25440;DHT22;13365;52.208;5.488;2023-04-25T15:09:28;14.80;68.70
25440;DHT22;13365;52.208;5.488;2023-04-25T15:11:53;15.10;65.70
25440;DHT22;13365;52.208;5.488;2023-04-25T15:14:19;15.10;68.20
25440;DHT22;13365;52.208;5.488;2023-04-25T15:16:45;15.50;69.00
25440;DHT22;13365;52.208;5.488;2023-04-25T15:19:10;15.80;66.30
25440;DHT22;13365;52.208;5.488;2023-04-25T15:21:36;15.50;66.50
25440;DHT22;13365;52.208;5.488;2023-04-25T15:24:02;15.20;67.50
25440;DHT22;13365;52.208;5.488;2023-04-25T15:26:27;14.90;66.10
25440;DHT22;13365;52.208;5.488;2023-04-25T15:28:53;14.50;67.70
25440;DHT22;13365;52.208;5.488;2023-04-25T15:31:19;14.20;69.30
25440;DHT22;13365;52.208;5.488;2023-04-25T15:33:45;14.20;70.70
25440;DHT22;13365;52.208;5.488;2023-04-25T15:36:10;14.40;70.50
25440;DHT22;13365;52.208;5.488;2023-04-25T15:38:36;14.30;69.80
25440;DHT22;13365;52.208;5.488;2023-04-25T15:41:02;14.20;70.50